Terminal Aerodrome Forecast
Issued by NWS Pocatello, ID

Home | Current Version | Previous Version | Text Only | Print | Product List | Glossary On
Versions: 1 2 3 4 5 6 7 8 9 10 11 12
000
FTUS45 KPIH 050520
TAFBYI
TAF
KBYI 050520Z 0506/0606 19005KT P6SM FEW110 SCT200
     FM051600 25010G15KT P6SM VCSH SCT090 BKN110
     FM052000 27020G30KT P6SM FEW120 BKN200=

USA.gov is the U.S. government's official web portal to all federal, state and local government web resources and services.